createdAt,value
2018-03-23T00:02:11.370Z,15.80
2018-03-23T00:04:40.367Z,16.63
2018-03-23T00:07:08.902Z,16.17
2018-03-23T00:09:37.119Z,15.77
2018-03-23T00:12:05.313Z,17.17
2018-03-23T00:14:33.808Z,17.33
2018-03-23T00:17:02.005Z,16.00
2018-03-23T00:19:30.221Z,13.83
2018-03-23T00:21:58.969Z,15.73
2018-03-23T00:24:27.173Z,13.40
2018-03-23T00:26:55.734Z,12.30
2018-03-23T00:29:24.306Z,13.20
2018-03-23T00:31:53.136Z,15.00
2018-03-23T00:34:21.339Z,16.67
2018-03-23T00:36:49.941Z,13.27
2018-03-23T00:39:18.786Z,14.50
2018-03-23T00:41:46.989Z,11.57
2018-03-23T00:44:15.203Z,13.93
2018-03-23T00:46:43.423Z,14.23
2018-03-23T00:49:11.714Z,15.27
2018-03-23T00:51:40.380Z,12.43
2018-03-23T00:54:08.986Z,13.57
2018-03-23T00:56:37.177Z,15.17
2018-03-23T00:59:05.456Z,13.07
2018-03-23T01:01:33.685Z,13.20
2018-03-23T01:04:03.188Z,13.93
2018-03-23T01:06:32.180Z,13.23
2018-03-23T01:09:00.390Z,14.47
2018-03-23T01:11:29.768Z,12.17
2018-03-23T01:13:58.342Z,12.60
2018-03-23T01:16:27.325Z,13.03
2018-03-23T01:18:55.533Z,13.17
2018-03-23T01:21:23.977Z,12.13
2018-03-23T01:23:52.192Z,13.33
2018-03-23T01:26:20.779Z,13.03
2018-03-23T01:28:49.224Z,13.00
2018-03-23T01:31:18.199Z,11.93
2018-03-23T01:33:47.849Z,10.90
2018-03-23T01:36:16.049Z,12.87
2018-03-23T01:38:44.267Z,12.63
2018-03-23T01:41:12.505Z,13.50
2018-03-23T01:43:40.717Z,12.63
2018-03-23T01:46:08.930Z,10.47
2018-03-23T01:48:37.971Z,13.47
2018-03-23T01:51:06.398Z,11.90
2018-03-23T01:53:43.528Z,12.87
2018-03-23T01:56:11.738Z,11.87
2018-03-23T01:58:39.997Z,11.93
2018-03-23T02:01:08.489Z,12.00
2018-03-23T02:03:36.780Z,11.83
2018-03-23T02:06:05.752Z,12.90
2018-03-23T02:08:33.967Z,11.30
2018-03-23T02:11:04.293Z,12.70
2018-03-23T02:13:32.668Z,11.20
2018-03-23T02:16:00.897Z,11.33
2018-03-23T02:18:29.106Z,11.73
2018-03-23T02:20:58.197Z,11.67
2018-03-23T02:23:26.690Z,12.00
2018-03-23T02:25:55.960Z,10.97
2018-03-23T02:28:24.657Z,12.00
2018-03-23T02:30:52.899Z,11.20
2018-03-23T02:33:21.642Z,11.67
2018-03-23T02:35:50.618Z,12.43
2018-03-23T02:38:18.826Z,13.43
2018-03-23T02:40:47.070Z,11.47
2018-03-23T02:43:15.279Z,13.13
2018-03-23T02:45:43.498Z,12.57
2018-03-23T02:48:12.285Z,13.00
2018-03-23T02:50:40.998Z,11.60
2018-03-23T02:53:09.693Z,11.57
2018-03-23T02:55:38.141Z,12.17
2018-03-23T02:58:06.435Z,12.73
2018-03-23T03:00:34.653Z,13.30
2018-03-23T03:03:03.157Z,12.77
2018-03-23T03:05:31.366Z,13.30
2018-03-23T03:07:59.581Z,12.33
2018-03-23T03:10:27.804Z,13.50
2018-03-23T03:12:59.578Z,15.83
2018-03-23T03:15:27.812Z,13.60
2018-03-23T03:17:56.013Z,12.63
2018-03-23T03:20:24.812Z,14.40
2018-03-23T03:22:53.018Z,14.70
2018-03-23T03:25:21.318Z,14.37
2018-03-23T03:30:24.689Z,13.70
2018-03-23T03:32:52.983Z,14.27
2018-03-23T03:35:21.957Z,15.50
2018-03-23T03:37:50.175Z,14.47
2018-03-23T03:40:18.416Z,16.00
2018-03-23T03:42:51.224Z,16.57
2018-03-23T03:45:20.201Z,13.37
2018-03-23T03:47:48.408Z,15.60
2018-03-23T03:50:17.066Z,16.93
2018-03-23T03:52:45.957Z,14.23
2018-03-23T03:55:15.342Z,15.80
2018-03-23T03:57:43.594Z,17.20
2018-03-23T04:00:11.798Z,16.97
2018-03-23T04:02:40.491Z,15.87
2018-03-23T04:05:08.706Z,16.57
2018-03-23T04:07:36.918Z,13.70
2018-03-23T04:10:05.905Z,15.63
2018-03-23T04:12:34.125Z,15.20
2018-03-23T04:15:02.997Z,15.60
2018-03-23T04:17:31.213Z,14.53
2018-03-23T04:20:00.104Z,15.87
2018-03-23T04:22:29.074Z,14.20
2018-03-23T04:25:02.165Z,16.80
2018-03-23T04:27:31.660Z,16.40
2018-03-23T04:30:00.552Z,15.10
2018-03-23T04:32:28.873Z,17.00
2018-03-23T04:34:57.081Z,14.40
2018-03-23T04:37:25.286Z,14.67
2018-03-23T04:39:53.505Z,16.80
2018-03-23T04:42:21.796Z,15.27
2018-03-23T04:44:50.285Z,16.17
2018-03-23T04:47:18.686Z,15.23
2018-03-23T04:49:47.417Z,14.37
2018-03-23T04:52:17.217Z,16.23
2018-03-23T04:54:46.181Z,15.10
2018-03-23T04:57:14.785Z,15.30
2018-03-23T04:59:42.997Z,15.37
2018-03-23T05:02:12.353Z,15.97
2018-03-23T05:04:40.561Z,14.90
2018-03-23T05:07:08.772Z,15.57
2018-03-23T05:09:37.288Z,16.10
2018-03-23T05:12:05.510Z,17.00
2018-03-23T05:14:38.366Z,18.13
2018-03-23T05:17:07.341Z,15.70
2018-03-23T05:19:35.552Z,17.03
2018-03-23T05:22:04.680Z,15.60
2018-03-23T05:24:33.302Z,17.40
2018-03-23T05:27:01.981Z,16.67
2018-03-23T05:29:30.446Z,16.57
2018-03-23T05:31:59.361Z,17.70
2018-03-23T05:34:27.569Z,16.07
2018-03-23T05:36:55.775Z,15.17
2018-03-23T05:39:24.006Z,16.63
2018-03-23T05:41:53.524Z,16.27
2018-03-23T05:44:22.485Z,16.17
2018-03-23T05:46:50.693Z,17.67
2018-03-23T05:49:20.195Z,18.87
2018-03-23T05:51:49.607Z,17.67
2018-03-23T05:54:18.213Z,16.93
2018-03-23T05:56:47.077Z,15.33
2018-03-23T05:59:16.051Z,16.87
2018-03-23T06:02:00.619Z,18.10
2018-03-23T06:04:29.589Z,18.53
2018-03-23T06:06:57.800Z,17.70
2018-03-23T06:09:27.110Z,18.23
2018-03-23T06:11:55.318Z,17.50
2018-03-23T06:14:24.158Z,16.60
2018-03-23T06:16:52.367Z,17.57
2018-03-23T06:19:20.570Z,19.90
2018-03-23T06:21:50.017Z,17.00
2018-03-23T06:24:18.221Z,19.13
2018-03-23T06:26:46.959Z,16.57
2018-03-23T06:29:15.278Z,17.47
2018-03-23T06:31:43.858Z,18.10
2018-03-23T06:34:12.049Z,22.62
2018-03-23T06:36:40.266Z,21.17
2018-03-23T06:39:08.670Z,18.43
2018-03-23T06:41:38.533Z,17.00
2018-03-23T06:44:06.736Z,19.70
2018-03-23T06:46:35.571Z,17.53
2018-03-23T06:49:03.769Z,20.27
2018-03-23T06:51:32.538Z,17.70
2018-03-23T06:54:00.812Z,16.87
2018-03-23T06:56:29.009Z,17.60
2018-03-23T06:58:57.734Z,17.80
2018-03-23T07:01:25.949Z,17.03
2018-03-23T07:03:54.494Z,19.67
2018-03-23T07:06:22.705Z,18.47
2018-03-23T07:08:51.588Z,15.97
2018-03-23T07:11:19.781Z,16.80
2018-03-23T07:13:49.059Z,13.70
2018-03-23T07:16:17.270Z,15.90
2018-03-23T07:18:46.118Z,14.50
2018-03-23T07:21:15.631Z,14.50
2018-03-23T07:23:44.605Z,13.50
2018-03-23T07:26:13.029Z,13.03
2018-03-23T07:28:41.526Z,10.63
2018-03-23T07:31:10.188Z,11.93
2018-03-23T07:33:38.639Z,12.83
2018-03-23T07:36:06.850Z,12.10
2018-03-23T07:38:35.077Z,12.00
2018-03-23T07:41:03.301Z,13.40
2018-03-23T07:43:31.965Z,12.13
2018-03-23T07:46:00.998Z,12.83
2018-03-23T07:48:29.210Z,14.53
2018-03-23T07:50:58.004Z,14.10
2018-03-23T07:53:26.833Z,16.47
2018-03-23T07:55:55.038Z,13.50
2018-03-23T07:58:23.858Z,13.63
2018-03-23T08:00:52.069Z,14.90
2018-03-23T09:25:18.554Z,11.30
2018-03-23T09:27:47.279Z,13.80
2018-03-23T09:30:15.717Z,13.17
2018-03-23T09:32:44.065Z,12.60
2018-03-23T09:35:12.778Z,12.23
2018-03-23T09:37:40.946Z,14.07
2018-03-23T09:40:09.658Z,12.77
2018-03-23T09:42:38.982Z,14.10
2018-03-23T09:45:07.184Z,14.47
2018-03-23T09:47:35.393Z,15.60
2018-03-23T09:50:04.002Z,14.37
2018-03-23T09:52:33.225Z,14.67
2018-03-23T09:55:01.451Z,13.77
2018-03-23T09:57:29.844Z,13.23
2018-03-23T09:59:58.110Z,15.50
2018-03-23T10:02:26.437Z,15.20
2018-03-23T10:04:54.649Z,15.77
2018-03-23T10:07:23.361Z,14.87
2018-03-23T10:09:51.614Z,13.80
2018-03-23T10:12:20.721Z,14.70
2018-03-23T10:14:52.927Z,13.70
2018-03-23T10:17:21.954Z,15.03
2018-03-23T10:19:57.145Z,14.77
2018-03-23T10:22:25.353Z,13.17
2018-03-23T10:24:53.561Z,17.17
2018-03-23T10:27:22.685Z,15.67
2018-03-23T10:29:51.178Z,12.97
2018-03-23T10:32:20.422Z,15.73
2018-03-23T10:34:48.642Z,16.20
2018-03-23T10:37:16.963Z,14.23
2018-03-23T10:39:45.364Z,15.40
2018-03-23T10:42:13.640Z,13.77
2018-03-23T10:44:41.879Z,17.50
2018-03-23T10:47:11.171Z,15.07
2018-03-23T10:49:43.509Z,16.57
2018-03-23T10:52:15.258Z,15.67
2018-03-23T10:54:44.415Z,15.40
2018-03-23T10:57:12.877Z,16.93
2018-03-23T10:59:41.850Z,15.27
2018-03-23T11:15:34.476Z,14.37
2018-03-23T11:18:03.702Z,13.97
2018-03-23T11:20:31.965Z,16.17
2018-03-23T11:23:00.673Z,17.20
2018-03-23T11:25:29.552Z,16.23
2018-03-23T11:27:58.809Z,16.80
2018-03-23T11:30:27.010Z,15.37
2018-03-23T11:32:55.334Z,14.30
2018-03-23T11:35:24.320Z,13.80
2018-03-23T11:37:53.291Z,15.70
2018-03-23T11:40:21.510Z,14.70
2018-03-23T11:42:50.386Z,16.60
2018-03-23T11:45:19.358Z,17.03
2018-03-23T11:47:47.569Z,15.17
2018-03-23T11:50:15.858Z,15.73
2018-03-23T11:52:44.494Z,18.40
2018-03-23T11:55:12.805Z,14.63
2018-03-23T11:57:41.277Z,16.80
2018-03-23T12:00:09.493Z,15.43
2018-03-23T12:02:37.941Z,15.97
2018-03-23T12:05:06.154Z,16.37
2018-03-23T12:10:09.358Z,14.40
2018-03-23T12:12:37.566Z,16.10
2018-03-23T12:15:06.182Z,15.50
2018-03-23T12:17:35.160Z,15.90
2018-03-23T12:20:03.861Z,14.80
2018-03-23T12:22:32.071Z,17.80
2018-03-23T12:25:00.277Z,13.57
2018-03-23T12:27:28.992Z,14.80
2018-03-23T12:29:57.569Z,15.60
2018-03-23T12:32:26.163Z,15.10
2018-03-23T12:34:55.164Z,12.50
2018-03-23T12:37:23.617Z,15.87
2018-03-23T12:39:51.958Z,15.53
2018-03-23T12:42:21.297Z,17.30
2018-03-23T12:44:49.589Z,15.57
2018-03-23T12:47:18.570Z,13.37
2018-03-23T12:49:47.793Z,15.27
2018-03-23T12:52:17.498Z,17.00
2018-03-23T12:54:46.910Z,14.13
2018-03-23T12:57:15.959Z,15.00
2018-03-23T12:59:44.174Z,14.10
2018-03-23T13:02:13.361Z,13.53
2018-03-23T13:04:41.566Z,16.00
2018-03-23T13:07:09.847Z,16.30
2018-03-23T13:09:38.061Z,15.73
2018-03-23T13:12:06.275Z,16.00
2018-03-23T13:14:34.663Z,14.80
2018-03-23T13:17:03.633Z,16.33
2018-03-23T13:19:31.845Z,15.37
2018-03-23T13:22:00.840Z,15.37
2018-03-23T13:24:29.045Z,16.70
2018-03-23T13:26:57.326Z,14.50
2018-03-23T13:29:26.069Z,14.10
2018-03-23T13:31:55.409Z,12.77
2018-03-23T13:34:23.614Z,15.07
2018-03-23T13:36:51.822Z,17.10
2018-03-23T13:39:20.045Z,16.17
2018-03-23T13:41:49.289Z,15.33
2018-03-23T13:44:18.393Z,14.90
2018-03-23T13:46:47.432Z,13.70
2018-03-23T13:49:15.637Z,14.97
2018-03-23T13:51:44.753Z,15.27
2018-03-23T13:54:14.100Z,13.10
2018-03-23T13:56:48.198Z,13.10
2018-03-23T13:59:21.993Z,13.20
2018-03-23T14:01:58.687Z,15.00
2018-03-23T14:04:27.193Z,12.27
2018-03-23T14:06:55.717Z,12.20
2018-03-23T14:09:24.688Z,12.13
2018-03-23T14:11:52.904Z,11.00
2018-03-23T14:14:21.405Z,11.33
2018-03-23T14:16:49.626Z,11.73
2018-03-23T14:19:17.841Z,11.40
2018-03-23T14:21:46.609Z,13.90
2018-03-23T14:24:15.577Z,11.60
2018-03-23T14:26:44.079Z,10.70
2018-03-23T14:29:13.401Z,11.20
2018-03-23T14:31:42.295Z,12.40
2018-03-23T14:34:10.502Z,12.73
2018-03-23T14:36:38.704Z,11.93
2018-03-23T14:39:07.535Z,11.07
2018-03-23T14:41:36.610Z,13.07
2018-03-23T14:44:05.590Z,11.13
2018-03-23T14:46:34.415Z,12.97
2018-03-23T14:49:02.978Z,12.03
2018-03-23T14:51:31.606Z,12.03
2018-03-23T14:54:00.435Z,13.33
2018-03-23T14:56:30.242Z,12.93
2018-03-23T14:59:05.128Z,12.10
2018-03-23T15:01:33.524Z,12.03
2018-03-23T15:04:01.774Z,11.20
2018-03-23T15:06:30.222Z,13.83
2018-03-23T15:08:58.425Z,12.97
2018-03-23T15:11:27.848Z,11.53
2018-03-23T15:14:02.464Z,11.13
2018-03-23T15:16:31.249Z,9.50
2018-03-23T15:19:00.230Z,12.00
2018-03-23T15:21:28.992Z,9.23
2018-03-23T15:23:57.209Z,10.43
2018-03-23T15:26:25.510Z,10.03
2018-03-23T15:28:53.840Z,10.97
2018-03-23T15:31:23.240Z,10.70
2018-03-23T15:33:51.446Z,8.97
2018-03-23T15:36:20.432Z,11.00
2018-03-23T15:38:48.677Z,8.67
2018-03-23T15:41:16.876Z,8.97
2018-03-23T15:43:46.157Z,8.97
2018-03-23T15:46:14.685Z,11.20
2018-03-23T15:48:43.637Z,10.57
2018-03-23T15:51:12.055Z,10.70
2018-03-23T15:53:40.916Z,11.30
2018-03-23T15:56:09.597Z,11.83
2018-03-23T15:58:38.074Z,12.83
2018-03-23T16:01:06.289Z,12.90
2018-03-23T16:03:34.733Z,12.20
2018-03-23T16:06:03.107Z,12.63
2018-03-23T16:08:31.329Z,11.20
2018-03-23T16:10:59.986Z,11.00
2018-03-23T16:13:28.247Z,11.47
2018-03-23T16:15:56.735Z,11.63
2018-03-23T16:18:25.026Z,10.40
2018-03-23T16:20:53.738Z,13.13
2018-03-23T16:23:21.973Z,11.87
2018-03-23T16:25:50.284Z,12.57
2018-03-23T16:28:20.437Z,11.37
2018-03-23T16:30:56.928Z,13.27
2018-03-23T16:33:25.141Z,11.87
2018-03-23T16:35:54.121Z,11.50
2018-03-23T16:38:22.345Z,13.27
2018-03-23T16:40:50.557Z,12.93
2018-03-23T16:43:19.850Z,12.27
2018-03-23T16:45:48.821Z,13.90
2018-03-23T16:48:17.567Z,12.67
2018-03-23T16:50:45.975Z,12.23
2018-03-23T16:53:14.626Z,13.10
2018-03-23T16:55:46.165Z,13.67
2018-03-23T16:58:15.047Z,12.60
2018-03-23T17:00:43.226Z,15.10
2018-03-23T17:05:45.116Z,12.87
2018-03-23T17:08:13.333Z,13.10
2018-03-23T17:10:42.354Z,11.97
2018-03-23T17:13:10.581Z,12.67
2018-03-23T17:15:39.266Z,13.23
2018-03-23T17:18:08.264Z,13.83
2018-03-23T17:20:37.137Z,12.90
2018-03-23T17:23:05.337Z,11.87
2018-03-23T17:25:43.971Z,10.87
2018-03-23T17:28:12.632Z,13.70
2018-03-23T17:30:41.884Z,12.23
2018-03-23T17:33:10.330Z,10.87
2018-03-23T17:35:38.539Z,13.13
2018-03-23T17:38:06.753Z,11.73
2018-03-23T17:40:34.972Z,12.87
2018-03-23T17:43:03.732Z,10.30
2018-03-23T17:45:33.062Z,15.03
2018-03-23T17:48:01.269Z,13.50
2018-03-23T17:50:30.200Z,13.07
2018-03-23T17:53:07.773Z,13.97
2018-03-23T17:55:36.561Z,13.27
2018-03-23T17:58:04.902Z,12.53
2018-03-23T18:00:33.457Z,15.90
2018-03-23T18:03:02.768Z,15.63
2018-03-23T18:05:31.440Z,14.10
2018-03-23T18:08:00.425Z,15.40
2018-03-23T18:10:29.478Z,14.60
2018-03-23T18:12:57.801Z,15.60
2018-03-23T18:15:26.529Z,16.23
2018-03-23T18:17:55.021Z,15.83
2018-03-23T18:20:23.654Z,16.03
2018-03-23T18:22:52.636Z,16.47
2018-03-23T18:25:20.857Z,15.00
2018-03-23T18:27:49.719Z,15.40
2018-03-23T18:30:19.246Z,13.97
2018-03-23T18:32:47.949Z,17.90
2018-03-23T18:35:16.165Z,17.03
2018-03-23T18:37:44.673Z,16.70
2018-03-23T18:40:13.713Z,16.30
2018-03-23T18:42:42.519Z,14.40
2018-03-23T18:45:10.726Z,16.50
2018-03-23T18:47:38.981Z,19.67
2018-03-23T18:50:07.727Z,16.73
2018-03-23T18:52:36.088Z,14.47
2018-03-23T18:55:05.046Z,13.50
2018-03-23T18:57:33.782Z,15.23
2018-03-23T19:00:02.121Z,15.50
2018-03-23T19:02:30.516Z,12.47
2018-03-23T19:05:04.829Z,15.80
2018-03-23T19:07:33.038Z,15.70
2018-03-23T19:10:01.302Z,13.57
2018-03-23T19:12:29.572Z,14.50
2018-03-23T19:14:57.819Z,14.53
2018-03-23T19:17:26.294Z,14.03
2018-03-23T19:20:00.546Z,17.00
2018-03-23T19:22:29.532Z,15.23
2018-03-23T19:24:59.161Z,14.97
2018-03-23T19:27:27.741Z,15.60
2018-03-23T19:29:56.450Z,14.10
2018-03-23T19:32:25.120Z,15.90
2018-03-23T19:34:53.710Z,18.83
2018-03-23T19:37:21.925Z,15.50
2018-03-23T19:39:50.162Z,17.50
2018-03-23T19:42:19.184Z,15.07
2018-03-23T19:44:48.598Z,14.53
2018-03-23T19:47:19.578Z,15.17
2018-03-23T19:49:48.049Z,13.33
2018-03-23T19:52:16.753Z,17.00
2018-03-23T19:54:45.738Z,16.37
2018-03-23T19:57:23.063Z,15.23
2018-03-23T19:59:52.493Z,15.07
2018-03-23T20:02:21.055Z,15.30
2018-03-23T20:04:49.365Z,14.20
2018-03-23T20:07:17.695Z,14.20
2018-03-23T20:09:47.102Z,14.53
2018-03-23T20:12:15.269Z,17.10
2018-03-23T20:14:43.674Z,14.20
2018-03-23T20:17:12.472Z,14.83
2018-03-23T20:19:40.673Z,13.40
2018-03-23T20:22:09.181Z,12.73
2018-03-23T20:24:37.402Z,14.40
2018-03-23T20:27:12.405Z,13.73
2018-03-23T20:29:41.470Z,13.47
2018-03-23T20:32:15.585Z,13.47
2018-03-23T20:34:44.035Z,13.00
2018-03-23T20:37:12.257Z,12.17
2018-03-23T20:39:40.435Z,12.47
2018-03-23T20:42:09.114Z,12.90
2018-03-23T20:44:38.098Z,10.80
2018-03-23T20:47:06.805Z,11.40
2018-03-23T20:49:36.186Z,11.33
2018-03-23T20:52:05.969Z,12.77
2018-03-23T20:54:34.471Z,14.13
2018-03-23T20:57:03.191Z,13.77
2018-03-23T20:59:32.153Z,14.23
2018-03-23T21:02:00.364Z,13.30
2018-03-23T21:04:29.898Z,13.40
2018-03-23T21:07:01.352Z,14.67
2018-03-23T21:12:48.754Z,14.93
2018-03-23T21:15:16.950Z,13.97
2018-03-23T21:17:45.933Z,11.90
2018-03-23T21:20:15.265Z,14.20
2018-03-23T21:22:43.485Z,14.87
2018-03-23T21:25:12.050Z,13.60
2018-03-23T21:27:40.516Z,13.23
2018-03-23T21:30:08.801Z,14.20
2018-03-23T21:32:37.081Z,25.93
2018-03-23T21:35:05.488Z,25.43
2018-03-23T21:37:33.689Z,16.97
2018-03-23T21:40:02.664Z,13.00
2018-03-23T21:42:31.346Z,15.30
2018-03-23T21:45:00.340Z,15.87
2018-03-23T21:47:28.546Z,16.37
2018-03-23T21:50:01.768Z,12.97
2018-03-23T21:52:30.854Z,17.00
2018-03-23T21:54:59.065Z,17.37
2018-03-23T21:57:27.353Z,15.07
2018-03-23T21:59:55.556Z,14.73
2018-03-23T22:02:32.125Z,15.33
2018-03-23T22:05:02.682Z,14.70
2018-03-23T22:07:31.645Z,16.97
2018-03-23T22:10:00.617Z,14.40
2018-03-23T22:12:29.628Z,14.07
2018-03-23T22:14:58.951Z,15.20
2018-03-23T22:17:28.206Z,16.20
2018-03-23T22:20:01.305Z,14.07
2018-03-23T22:22:29.525Z,18.00
2018-03-23T22:24:57.778Z,16.60
2018-03-23T22:27:26.878Z,14.43
2018-03-23T22:29:55.821Z,14.60
2018-03-23T22:32:24.424Z,15.17
2018-03-23T22:34:52.673Z,15.47
2018-03-23T22:37:20.881Z,15.37
2018-03-23T22:39:49.730Z,15.10
2018-03-23T22:42:18.044Z,13.83
2018-03-23T22:44:46.286Z,14.07
2018-03-23T22:47:14.506Z,14.73
2018-03-23T22:49:43.086Z,14.70
2018-03-23T22:52:16.809Z,16.10
2018-03-23T22:54:45.897Z,13.87
2018-03-23T22:57:14.173Z,14.33
2018-03-23T22:59:42.375Z,16.10
2018-03-23T23:02:10.586Z,15.97
2018-03-23T23:04:39.237Z,15.40
2018-03-23T23:07:08.198Z,15.67
2018-03-23T23:09:36.413Z,16.50
2018-03-23T23:12:04.630Z,25.47
2018-03-23T23:14:32.843Z,18.03
2018-03-23T23:17:01.037Z,14.40
2018-03-23T23:19:29.901Z,18.60
2018-03-23T23:21:58.464Z,18.13
2018-03-23T23:24:26.759Z,16.53
2018-03-23T23:26:55.325Z,16.63
2018-03-23T23:29:23.827Z,16.57
2018-03-23T23:31:52.208Z,21.30
2018-03-23T23:34:20.411Z,23.10
2018-03-23T23:36:49.113Z,20.73
2018-03-23T23:39:17.577Z,16.27
2018-03-23T23:41:48.921Z,16.73
2018-03-23T23:44:17.906Z,17.13
2018-03-23T23:46:46.109Z,15.57
2018-03-23T23:49:14.758Z,16.37
2018-03-23T23:51:43.073Z,15.33
2018-03-23T23:54:11.626Z,13.30
2018-03-23T23:56:40.030Z,13.23
2018-03-23T23:59:08.594Z,15.83
